createdAt,value
2023-05-16T00:04:20.533Z,3.58
2023-05-16T00:09:24.694Z,3.33
2023-05-16T00:14:32.824Z,3.47
2023-05-16T00:19:34.709Z,3.25
2023-05-16T00:24:41.073Z,3.80
2023-05-16T00:29:42.870Z,3.83
2023-05-16T00:34:44.771Z,4.03
2023-05-16T00:39:50.576Z,3.92
2023-05-16T00:45:03.978Z,4.78
2023-05-16T00:50:06.068Z,6.28
2023-05-16T00:55:44.032Z,7.72
2023-05-16T01:06:18.787Z,8.13
2023-05-16T01:11:41.502Z,6.63
2023-05-16T01:17:12.801Z,5.18
2023-05-16T01:22:56.152Z,6.78
2023-05-16T01:28:20.464Z,7.75
2023-05-16T01:33:23.605Z,10.20
2023-05-16T01:38:46.850Z,9.55
2023-05-16T01:43:58.064Z,9.07
2023-05-16T01:49:20.532Z,10.57
2023-05-16T01:54:26.569Z,9.07
2023-05-16T01:59:29.300Z,10.15
2023-05-16T02:04:33.228Z,8.65
2023-05-16T02:09:36.761Z,9.02
2023-05-16T02:14:45.082Z,11.13
2023-05-16T02:19:46.805Z,9.88
2023-05-16T02:24:48.938Z,8.57
2023-05-16T02:29:50.602Z,6.38
2023-05-16T02:34:52.292Z,3.22
2023-05-16T02:39:54.455Z,3.38
2023-05-16T02:44:58.262Z,3.65
2023-05-16T02:50:06.046Z,3.90
2023-05-16T03:00:13.534Z,4.13
2023-05-16T03:05:18.591Z,4.47
2023-05-16T03:10:34.025Z,4.65
2023-05-16T03:15:44.627Z,4.00
2023-05-16T03:20:48.309Z,3.90
2023-05-16T03:25:52.687Z,4.40
2023-05-16T03:30:59.957Z,4.28
2023-05-16T03:36:02.825Z,4.32
2023-05-16T03:41:06.092Z,3.70
2023-05-16T03:46:13.451Z,4.60
2023-05-16T03:56:34.307Z,4.40
2023-05-16T04:01:41.808Z,5.32
2023-05-16T04:06:48.797Z,4.38
2023-05-16T04:11:52.476Z,3.15
2023-05-16T04:22:29.577Z,4.65
2023-05-16T04:27:40.953Z,4.78
2023-05-16T04:32:44.238Z,5.10
2023-05-16T04:37:46.460Z,4.18
2023-05-16T04:42:52.101Z,4.20
2023-05-16T04:53:53.898Z,3.65
2023-05-16T04:58:55.996Z,4.53
2023-05-16T05:03:58.706Z,4.05
2023-05-16T05:09:00.518Z,3.38
2023-05-16T05:14:02.628Z,3.53
2023-05-16T05:19:08.475Z,2.85
2023-05-16T05:24:25.209Z,2.72
2023-05-16T05:29:34.658Z,3.30
2023-05-16T05:34:50.366Z,3.57
2023-05-16T05:39:51.927Z,3.22
2023-05-16T05:45:00.599Z,3.58
2023-05-16T05:50:03.667Z,2.55
2023-05-16T05:55:08.913Z,2.78
2023-05-16T06:00:11.767Z,2.85
2023-05-16T06:05:13.838Z,3.13
2023-05-16T06:10:18.780Z,2.90
2023-05-16T06:15:20.660Z,2.60
2023-05-16T06:20:25.168Z,2.95
2023-05-16T06:25:27.192Z,2.17
2023-05-16T06:30:28.992Z,3.22
2023-05-16T06:35:37.051Z,2.75
2023-05-16T06:40:38.609Z,2.47
2023-05-16T06:45:40.511Z,2.28
2023-05-16T06:50:42.277Z,2.60
2023-05-16T06:55:59.368Z,1.80
2023-05-16T07:01:01.065Z,2.25
2023-05-16T07:06:03.437Z,2.08
2023-05-16T07:11:19.481Z,2.70
2023-05-16T07:16:24.235Z,2.05
2023-05-16T07:21:26.154Z,3.00
2023-05-16T07:26:29.321Z,2.58
2023-05-16T07:31:31.351Z,2.17
2023-05-16T07:36:36.995Z,1.98
2023-05-16T07:41:48.939Z,1.98
2023-05-16T07:46:51.218Z,2.00
2023-05-16T07:51:58.455Z,2.05
2023-05-16T07:57:00.421Z,2.25
2023-05-16T08:02:04.290Z,2.05
2023-05-16T08:07:06.530Z,1.98
2023-05-16T08:12:11.997Z,1.98
2023-05-16T08:17:13.591Z,1.70
2023-05-16T08:27:45.328Z,2.28
2023-05-16T08:32:56.846Z,2.50
2023-05-16T08:38:09.704Z,2.80
2023-05-16T08:49:18.854Z,2.35
2023-05-16T08:54:55.253Z,1.65
2023-05-16T09:00:11.672Z,2.10
2023-05-16T09:10:49.305Z,1.50
2023-05-16T09:16:13.771Z,2.13
2023-05-16T09:21:20.402Z,1.75
2023-05-16T09:26:22.534Z,1.80
2023-05-16T09:31:32.035Z,2.58
2023-05-16T09:36:34.469Z,1.60
2023-05-16T09:41:44.101Z,1.88
2023-05-16T09:46:48.791Z,1.50
2023-05-16T09:51:50.608Z,1.60
2023-05-16T09:56:54.201Z,1.80
2023-05-16T10:02:00.787Z,1.83
2023-05-16T10:07:03.983Z,1.60
2023-05-16T10:12:13.636Z,2.33
2023-05-16T10:17:17.965Z,1.50
2023-05-16T10:22:23.648Z,1.85
2023-05-16T10:33:01.312Z,1.45
2023-05-16T10:38:52.329Z,1.50
2023-05-16T10:50:04.452Z,1.83
2023-05-16T10:55:08.400Z,1.50
2023-05-16T11:00:36.872Z,1.48
2023-05-16T11:06:05.355Z,1.70
2023-05-16T11:11:49.787Z,1.70
2023-05-16T11:17:18.703Z,1.60
2023-05-16T11:22:25.719Z,1.50
2023-05-16T11:43:54.815Z,1.70
2023-05-16T11:48:56.762Z,2.42
2023-05-16T11:54:14.649Z,2.20
2023-05-16T11:59:25.254Z,2.30
2023-05-16T12:10:05.130Z,1.90
2023-05-16T12:15:15.432Z,1.73
2023-05-16T12:37:07.981Z,1.40
2023-05-16T12:42:12.000Z,0.90
2023-05-16T12:52:49.977Z,1.35
2023-05-16T12:58:08.394Z,1.00
2023-05-16T13:03:36.088Z,1.33
2023-05-16T13:08:59.774Z,1.50
2023-05-16T13:14:08.837Z,1.60
2023-05-16T13:19:12.833Z,1.50
2023-05-16T13:24:18.626Z,1.65
2023-05-16T13:29:20.403Z,0.85
2023-05-16T13:34:51.054Z,1.35
2023-05-16T13:51:08.426Z,1.13
2023-05-16T13:56:09.913Z,0.93
2023-05-16T14:01:12.373Z,0.95
2023-05-16T14:06:17.189Z,1.25
2023-05-16T14:11:19.038Z,1.15
2023-05-16T14:16:21.243Z,1.02
2023-05-16T14:21:22.895Z,0.80
2023-05-16T14:26:24.409Z,2.03
2023-05-16T14:31:28.686Z,1.48
2023-05-16T14:36:30.794Z,1.25
2023-05-16T14:41:32.373Z,1.70
2023-05-16T14:46:34.068Z,1.50
2023-05-16T14:51:35.669Z,1.60
2023-05-16T14:56:39.906Z,1.65
2023-05-16T15:02:34.660Z,1.50
2023-05-16T15:07:39.336Z,1.20
2023-05-16T15:12:44.350Z,1.60
2023-05-16T15:17:45.971Z,1.60
2023-05-16T15:22:47.756Z,1.70
2023-05-16T15:27:49.473Z,1.77
2023-05-16T15:32:51.028Z,1.50
2023-05-16T15:37:54.292Z,1.55
2023-05-16T15:42:55.994Z,1.70
2023-05-16T15:47:57.938Z,2.00
2023-05-16T15:53:07.615Z,1.92
2023-05-16T15:58:13.197Z,1.88
2023-05-16T16:03:40.509Z,2.30
2023-05-16T16:08:51.825Z,1.88
2023-05-16T16:13:53.989Z,1.58
2023-05-16T16:18:56.014Z,1.90
2023-05-16T16:23:57.867Z,1.60
2023-05-16T16:29:00.236Z,1.95
2023-05-16T16:34:01.947Z,2.30
2023-05-16T16:39:11.296Z,1.83
2023-05-16T16:44:14.872Z,1.52
2023-05-16T16:49:16.901Z,2.10
2023-05-16T16:54:44.014Z,1.65
2023-05-16T16:59:48.137Z,1.80
2023-05-16T17:04:53.670Z,1.92
2023-05-16T17:18:20.365Z,1.50
2023-05-16T17:21:26.405Z,2.03
2023-05-16T17:26:31.270Z,2.03
2023-05-16T17:31:46.150Z,1.60
2023-05-16T17:36:55.479Z,1.85
2023-05-16T17:41:59.661Z,2.20
2023-05-16T17:47:01.420Z,1.77
2023-05-16T17:52:03.267Z,1.85
2023-05-16T17:57:14.935Z,2.30
2023-05-16T18:02:18.070Z,2.03
2023-05-16T18:07:20.670Z,2.15
2023-05-16T18:12:24.921Z,1.90
2023-05-16T18:22:43.044Z,1.70
2023-05-16T18:27:46.974Z,2.15
2023-05-16T18:32:48.587Z,1.70
2023-05-16T18:37:59.442Z,1.95
2023-05-16T18:43:02.810Z,2.00
2023-05-16T18:48:05.291Z,2.22
2023-05-16T18:53:07.423Z,2.20
2023-05-16T18:58:08.948Z,1.80
2023-05-16T19:03:11.281Z,2.40
2023-05-16T19:08:13.063Z,1.90
2023-05-16T19:13:14.654Z,1.95
2023-05-16T19:18:18.499Z,2.00
2023-05-16T19:23:20.492Z,2.67
2023-05-16T19:28:24.856Z,1.70
2023-05-16T19:33:26.510Z,1.88
2023-05-16T19:38:30.656Z,2.50
2023-05-16T19:43:35.868Z,2.05
2023-05-16T19:48:40.071Z,1.65
2023-05-16T19:53:41.892Z,2.08
2023-05-16T19:58:43.857Z,2.15
2023-05-16T20:03:56.528Z,2.35
2023-05-16T20:09:03.668Z,2.17
2023-05-16T20:14:05.455Z,2.70
2023-05-16T20:19:09.793Z,1.98
2023-05-16T20:24:11.802Z,2.10
2023-05-16T20:29:13.656Z,2.30
2023-05-16T20:34:15.360Z,1.98
2023-05-16T20:39:20.420Z,2.38
2023-05-16T20:44:24.538Z,2.13
2023-05-16T20:49:28.283Z,2.25
2023-05-16T20:54:30.032Z,2.15
2023-05-16T20:59:34.668Z,2.00
2023-05-16T21:04:44.426Z,2.42
2023-05-16T21:09:56.548Z,2.17
2023-05-16T21:15:05.571Z,2.10
2023-05-16T21:20:11.282Z,2.35
2023-05-16T21:25:19.359Z,2.17
2023-05-16T21:30:25.214Z,2.63
2023-05-16T21:35:42.750Z,3.58
2023-05-16T21:40:44.346Z,1.90
2023-05-16T21:46:17.843Z,2.38
2023-05-16T21:51:23.000Z,2.50
2023-05-16T21:56:24.772Z,2.38
2023-05-16T22:01:38.600Z,1.90
2023-05-16T22:06:43.771Z,2.17
2023-05-16T22:11:56.548Z,2.45
2023-05-16T22:17:06.009Z,1.45
2023-05-16T22:22:09.709Z,2.10
2023-05-16T22:27:12.055Z,2.38
2023-05-16T22:32:15.876Z,3.30
2023-05-16T22:37:21.306Z,2.30
2023-05-16T22:42:24.510Z,2.58
2023-05-16T22:47:30.225Z,2.50
2023-05-16T22:52:33.946Z,2.05
2023-05-16T22:57:57.277Z,1.88
2023-05-16T23:02:58.872Z,1.83
2023-05-16T23:08:00.623Z,2.22
2023-05-16T23:13:02.365Z,2.60
2023-05-16T23:18:08.301Z,2.50
2023-05-16T23:28:58.358Z,2.90
2023-05-16T23:34:03.501Z,3.10
2023-05-16T23:39:13.782Z,2.70
2023-05-16T23:54:37.125Z,2.50
2023-05-16T23:59:52.838Z,2.28
